createdAt,value
2022-12-09T00:01:28.238Z,51.28
2022-12-09T00:04:40.714Z,53.05
2022-12-09T00:07:53.066Z,61.18
2022-12-09T00:11:05.288Z,57.98
2022-12-09T00:14:18.432Z,58.28
2022-12-09T00:17:30.514Z,54.33
2022-12-09T00:20:42.983Z,65.08
2022-12-09T00:23:57.082Z,55.68
2022-12-09T00:27:10.772Z,50.90
2022-12-09T00:30:23.132Z,49.58
2022-12-09T00:33:37.173Z,47.10
2022-12-09T00:36:49.417Z,56.08
2022-12-09T00:40:03.335Z,55.13
2022-12-09T00:43:15.572Z,50.45
2022-12-09T00:46:28.199Z,49.45
2022-12-09T00:49:40.443Z,56.03
2022-12-09T00:52:52.264Z,57.40
2022-12-09T00:56:04.405Z,49.18
2022-12-09T00:59:16.503Z,49.83
2022-12-09T01:02:28.556Z,49.55
2022-12-09T01:05:43.485Z,59.88
2022-12-09T01:08:56.977Z,57.08
2022-12-09T01:12:09.278Z,57.48
2022-12-09T01:15:21.122Z,55.55
2022-12-09T01:18:33.360Z,58.88
2022-12-09T01:21:45.755Z,59.20
2022-12-09T01:24:57.981Z,56.18
2022-12-09T01:28:10.069Z,56.35
2022-12-09T01:31:24.897Z,62.68
2022-12-09T01:34:37.181Z,60.43
2022-12-09T01:37:49.234Z,59.18
2022-12-09T01:41:01.632Z,56.75
2022-12-09T01:44:21.902Z,57.58
2022-12-09T01:47:34.220Z,59.13
2022-12-09T01:50:49.771Z,55.83
2022-12-09T01:54:02.557Z,62.10
2022-12-09T01:57:15.206Z,59.93
2022-12-09T02:00:29.241Z,57.83
2022-12-09T02:03:43.430Z,58.13
2022-12-09T02:06:56.222Z,58.90
2022-12-09T02:10:14.485Z,63.23
2022-12-09T02:13:36.380Z,55.70
2022-12-09T02:16:57.224Z,55.73
2022-12-09T02:20:17.457Z,57.30
2022-12-09T02:23:34.605Z,60.45
2022-12-09T02:26:51.783Z,58.80
2022-12-09T02:33:46.827Z,57.40
2022-12-09T02:37:07.488Z,57.68
2022-12-09T02:40:24.639Z,53.85
2022-12-09T02:43:46.652Z,53.58
2022-12-09T02:46:57.153Z,54.58
2022-12-09T02:50:16.173Z,58.88
2022-12-09T02:53:32.228Z,58.78
2022-12-09T02:56:48.434Z,45.10
2022-12-09T03:00:01.045Z,38.03
2022-12-09T03:03:19.155Z,45.93
2022-12-09T03:06:37.953Z,48.40
2022-12-09T03:09:55.565Z,35.85
2022-12-09T03:13:13.952Z,33.00
2022-12-09T03:16:32.034Z,28.48
2022-12-09T03:19:48.447Z,29.80
2022-12-09T03:23:05.661Z,29.05
2022-12-09T03:29:32.967Z,29.53
2022-12-09T03:32:48.049Z,33.10
2022-12-09T03:36:04.288Z,31.45
2022-12-09T03:39:20.675Z,25.17
2022-12-09T03:42:38.283Z,40.78
2022-12-09T03:45:50.586Z,42.15
2022-12-09T03:49:03.822Z,28.98
2022-12-09T03:52:21.779Z,26.65
2022-12-09T03:55:38.954Z,28.58
2022-12-09T04:02:04.070Z,31.85
2022-12-09T04:05:17.762Z,31.50
2022-12-09T04:08:29.914Z,31.65
2022-12-09T04:11:42.301Z,31.78
2022-12-09T04:14:54.399Z,29.08
2022-12-09T04:18:06.670Z,33.55
2022-12-09T04:21:20.815Z,29.98
2022-12-09T04:24:33.142Z,28.28
2022-12-09T04:27:45.586Z,28.55
2022-12-09T04:30:58.771Z,29.33
2022-12-09T04:34:11.498Z,29.75
2022-12-09T04:37:23.813Z,35.98
2022-12-09T04:40:36.210Z,31.65
2022-12-09T04:43:49.048Z,30.18
2022-12-09T04:47:01.239Z,36.83
2022-12-09T04:50:16.434Z,34.43
2022-12-09T04:53:29.278Z,35.25
2022-12-09T04:56:41.702Z,36.83
2022-12-09T04:59:54.395Z,36.68
2022-12-09T05:03:06.596Z,34.13
2022-12-09T05:06:20.627Z,33.75
2022-12-09T05:09:33.030Z,34.30
2022-12-09T05:12:45.377Z,36.50
2022-12-09T05:15:57.423Z,36.93
2022-12-09T05:19:09.774Z,42.85
2022-12-09T05:22:23.475Z,40.20
2022-12-09T05:25:35.575Z,38.35
2022-12-09T05:28:47.667Z,31.15
2022-12-09T05:31:59.709Z,37.53
2022-12-09T05:35:13.740Z,29.13
2022-12-09T05:38:25.847Z,35.35
2022-12-09T05:41:37.914Z,39.08
2022-12-09T05:44:49.912Z,43.30
2022-12-09T05:48:02.210Z,43.93
2022-12-09T05:51:18.829Z,49.63
2022-12-09T05:54:30.986Z,48.58
2022-12-09T05:57:43.747Z,49.80
2022-12-09T06:00:57.945Z,42.70
2022-12-09T06:04:10.341Z,62.05
2022-12-09T06:07:22.820Z,47.05
2022-12-09T06:10:35.591Z,49.60
2022-12-09T06:13:48.513Z,59.28
2022-12-09T06:17:00.916Z,48.43
2022-12-09T06:20:15.654Z,42.28
2022-12-09T06:23:27.772Z,44.98
2022-12-09T06:26:40.072Z,42.33
2022-12-09T06:29:51.878Z,44.43
2022-12-09T06:33:17.251Z,44.95
2022-12-09T06:36:18.552Z,46.78
2022-12-09T06:39:30.844Z,50.20
2022-12-09T06:42:43.228Z,64.98
2022-12-09T06:45:55.353Z,50.00
2022-12-09T06:49:08.027Z,44.93
2022-12-09T06:52:20.317Z,51.80
2022-12-09T06:55:32.399Z,61.88
2022-12-09T06:58:45.168Z,50.15
2022-12-09T07:01:57.733Z,46.85
2022-12-09T07:05:11.881Z,59.88
2022-12-09T07:08:24.837Z,47.25
2022-12-09T07:11:37.581Z,87.43
2022-12-09T07:14:49.778Z,55.88
2022-12-09T07:18:02.826Z,40.25
2022-12-09T07:21:18.106Z,45.60
2022-12-09T07:24:30.927Z,51.00
2022-12-09T07:27:43.625Z,50.50
2022-12-09T07:30:55.678Z,41.75
2022-12-09T07:34:09.305Z,41.45
2022-12-09T07:37:21.910Z,49.25
2022-12-09T07:40:34.128Z,51.55
2022-12-09T07:43:46.305Z,49.73
2022-12-09T07:46:58.597Z,51.00
2022-12-09T07:50:13.610Z,48.00
2022-12-09T07:53:26.057Z,48.93
2022-12-09T07:56:38.511Z,44.28
2022-12-09T07:59:51.107Z,45.48
2022-12-09T08:03:03.559Z,48.50
2022-12-09T08:06:20.451Z,48.33
2022-12-09T08:09:32.943Z,55.85
2022-12-09T08:12:45.486Z,58.50
2022-12-09T08:15:58.199Z,52.35
2022-12-09T08:19:10.330Z,55.65
2022-12-09T08:22:23.650Z,59.98
2022-12-09T08:25:35.943Z,57.78
2022-12-09T08:28:48.597Z,54.33
2022-12-09T08:32:01.074Z,54.75
2022-12-09T08:35:16.194Z,54.28
2022-12-09T08:38:28.285Z,68.90
2022-12-09T08:41:42.482Z,60.03
2022-12-09T08:45:01.608Z,52.43
2022-12-09T08:48:09.577Z,56.03
2022-12-09T08:51:23.767Z,53.80
2022-12-09T08:54:35.950Z,58.00
2022-12-09T08:57:48.303Z,64.20
2022-12-09T09:01:03.403Z,61.63
2022-12-09T09:04:18.519Z,59.90
2022-12-09T09:07:31.333Z,58.68
2022-12-09T09:10:45.087Z,61.90
2022-12-09T09:13:57.820Z,80.85
2022-12-09T09:17:10.180Z,60.95
2022-12-09T09:20:22.719Z,57.83
2022-12-09T09:23:34.748Z,49.80
2022-12-09T09:26:50.143Z,60.73
2022-12-09T09:30:02.345Z,65.95
2022-12-09T09:33:15.401Z,89.88
2022-12-09T09:36:30.919Z,56.23
2022-12-09T09:39:43.286Z,60.55
2022-12-09T09:42:58.685Z,50.70
2022-12-09T09:46:13.877Z,51.50
2022-12-09T09:49:32.944Z,51.35
2022-12-09T09:52:48.105Z,44.05
2022-12-09T09:56:05.719Z,46.88
2022-12-09T09:59:29.648Z,43.93
2022-12-09T10:03:02.458Z,124.88
2022-12-09T10:06:25.878Z,47.60
2022-12-09T10:09:44.462Z,55.15
2022-12-09T10:13:12.943Z,53.43
2022-12-09T10:16:28.784Z,51.83
2022-12-09T10:19:46.847Z,53.35
2022-12-09T10:23:04.005Z,51.00
2022-12-09T10:26:21.886Z,45.23
2022-12-09T10:29:50.696Z,46.93
2022-12-09T10:33:03.005Z,42.83
2022-12-09T10:36:34.015Z,47.48
2022-12-09T10:39:43.317Z,43.98
2022-12-09T10:43:13.810Z,43.43
2022-12-09T10:46:29.243Z,39.18
2022-12-09T10:49:42.304Z,36.28
2022-12-09T10:52:54.679Z,41.63
2022-12-09T10:56:11.064Z,36.13
2022-12-09T10:59:29.854Z,41.77
2022-12-09T11:02:42.860Z,35.03
2022-12-09T11:06:03.381Z,30.90
2022-12-09T11:09:26.223Z,33.93
2022-12-09T11:12:42.345Z,35.90
2022-12-09T11:16:01.218Z,33.40
2022-12-09T11:19:18.409Z,32.25
2022-12-09T11:25:59.440Z,34.50
2022-12-09T11:29:22.113Z,44.73
2022-12-09T11:32:34.717Z,32.45
2022-12-09T11:36:00.048Z,35.10
2022-12-09T11:39:31.923Z,35.60
2022-12-09T11:42:43.940Z,33.28
2022-12-09T11:45:55.942Z,34.65
2022-12-09T11:49:13.642Z,35.78
2022-12-09T11:52:35.144Z,36.13
2022-12-09T11:55:51.501Z,34.73
2022-12-09T11:59:07.807Z,37.17
2022-12-09T12:02:29.068Z,27.38
2022-12-09T12:05:45.635Z,29.53
2022-12-09T12:09:02.530Z,21.30
2022-12-09T12:15:34.339Z,26.63
2022-12-09T12:18:53.308Z,25.78
2022-12-09T12:22:56.082Z,23.98
2022-12-09T12:26:16.099Z,28.28
2022-12-09T12:29:42.428Z,30.08
2022-12-09T12:36:33.372Z,33.00
2022-12-09T12:39:55.708Z,32.53
2022-12-09T12:43:41.233Z,35.60
2022-12-09T12:47:06.232Z,30.53
2022-12-09T12:50:32.400Z,32.80
2022-12-09T12:53:51.040Z,38.08
2022-12-09T12:57:09.972Z,33.00
2022-12-09T13:00:26.283Z,32.93
2022-12-09T13:03:46.412Z,31.58
2022-12-09T13:07:04.983Z,32.85
2022-12-09T13:10:26.759Z,37.68
2022-12-09T13:13:43.032Z,31.10
2022-12-09T13:16:57.165Z,27.68
2022-12-09T13:20:13.067Z,26.45
2022-12-09T13:23:47.863Z,28.70
2022-12-09T13:27:06.907Z,31.25
2022-12-09T13:30:24.058Z,24.38
2022-12-09T13:33:47.218Z,25.18
2022-12-09T13:36:59.233Z,25.95
2022-12-09T13:40:32.351Z,24.10
2022-12-09T13:43:46.551Z,27.00
2022-12-09T13:46:58.596Z,23.43
2022-12-09T13:50:18.840Z,26.60
2022-12-09T13:53:35.052Z,25.65
2022-12-09T13:56:47.828Z,26.48
2022-12-09T14:00:03.059Z,28.05
2022-12-09T14:06:42.571Z,29.03
2022-12-09T14:10:00.259Z,29.35
2022-12-09T14:13:35.576Z,25.05
2022-12-09T14:16:47.776Z,25.05
2022-12-09T14:20:08.279Z,25.33
2022-12-09T14:23:23.697Z,25.20
2022-12-09T14:26:44.526Z,24.45
2022-12-09T14:30:00.434Z,22.00
2022-12-09T14:33:33.330Z,25.48
2022-12-09T14:36:48.731Z,23.35
2022-12-09T14:40:06.506Z,22.73
2022-12-09T14:43:50.136Z,24.40
2022-12-09T14:47:17.582Z,23.98
2022-12-09T14:50:32.778Z,27.30
2022-12-09T14:53:45.537Z,23.53
2022-12-09T14:57:01.952Z,26.50
2022-12-09T15:00:35.060Z,25.00
2022-12-09T15:03:49.023Z,25.08
2022-12-09T15:07:16.851Z,21.55
2022-12-09T15:13:47.152Z,22.10
2022-12-09T15:17:00.280Z,25.85
2022-12-09T15:20:25.761Z,25.13
2022-12-09T15:23:42.533Z,30.85
2022-12-09T15:27:07.053Z,25.65
2022-12-09T15:30:34.353Z,26.23
2022-12-09T15:33:53.386Z,29.58
2022-12-09T15:37:09.052Z,26.23
2022-12-09T15:40:27.541Z,26.38
2022-12-09T15:43:42.543Z,26.40
2022-12-09T15:46:57.816Z,28.25
2022-12-09T15:50:18.136Z,25.65
2022-12-09T15:53:34.775Z,30.13
2022-12-09T15:56:50.632Z,30.13
2022-12-09T16:00:06.098Z,24.98
2022-12-09T16:03:21.425Z,26.40
2022-12-09T16:06:37.702Z,27.88
2022-12-09T16:10:08.208Z,34.20
2022-12-09T16:13:23.123Z,27.40
2022-12-09T16:16:43.503Z,29.53
2022-12-09T16:19:55.705Z,41.33
2022-12-09T16:23:10.568Z,35.28
2022-12-09T16:26:28.194Z,26.83
2022-12-09T16:29:42.658Z,27.95
2022-12-09T16:32:57.078Z,30.18
2022-12-09T16:36:14.691Z,31.95
2022-12-09T16:39:42.882Z,34.88
2022-12-09T16:42:56.914Z,29.70
2022-12-09T16:46:31.512Z,31.43
2022-12-09T16:49:43.936Z,30.00
2022-12-09T16:52:56.183Z,30.88
2022-12-09T16:56:09.517Z,30.95
2022-12-09T16:59:21.364Z,56.25
2022-12-09T17:02:38.187Z,31.23
2022-12-09T17:09:00.967Z,28.90
2022-12-09T17:12:13.730Z,29.98
2022-12-09T17:15:26.835Z,28.70
2022-12-09T17:18:39.514Z,28.25
2022-12-09T17:21:52.215Z,29.98
2022-12-09T17:25:04.328Z,26.13
2022-12-09T17:28:16.818Z,26.28
2022-12-09T17:31:30.147Z,26.85
2022-12-09T17:34:42.431Z,30.45
2022-12-09T17:37:57.223Z,29.93
2022-12-09T17:41:16.099Z,30.03
2022-12-09T17:44:28.633Z,34.83
2022-12-09T17:47:40.536Z,31.75
2022-12-09T17:50:52.400Z,35.50
2022-12-09T17:54:05.256Z,37.50
2022-12-09T17:57:17.731Z,39.20
2022-12-09T18:00:30.080Z,44.23
2022-12-09T18:03:59.376Z,44.45
2022-12-09T18:06:55.866Z,43.08
2022-12-09T18:10:08.502Z,41.40
2022-12-09T18:13:20.886Z,38.95
2022-12-09T18:16:32.856Z,40.75
2022-12-09T18:19:45.536Z,38.60
2022-12-09T18:22:57.445Z,39.13
2022-12-09T18:26:13.572Z,38.83
2022-12-09T18:29:25.661Z,38.40
2022-12-09T18:32:38.644Z,39.00
2022-12-09T18:35:50.568Z,38.60
2022-12-09T18:39:03.717Z,37.13
2022-12-09T18:42:15.623Z,37.35
2022-12-09T18:45:27.527Z,34.18
2022-12-09T18:48:41.736Z,37.40
2022-12-09T18:51:55.734Z,39.43
2022-12-09T18:55:07.641Z,34.73
2022-12-09T18:58:31.573Z,33.15
2022-12-09T19:01:38.514Z,32.85
2022-12-09T19:04:50.885Z,27.98
2022-12-09T19:08:02.888Z,27.03
2022-12-09T19:11:15.564Z,25.00
2022-12-09T19:14:29.313Z,28.38
2022-12-09T19:17:42.707Z,25.95
2022-12-09T19:20:54.733Z,22.60
2022-12-09T19:24:07.159Z,22.58
2022-12-09T19:27:19.149Z,25.13
2022-12-09T19:30:31.255Z,23.70
2022-12-09T19:33:43.264Z,24.53
2022-12-09T19:36:57.537Z,24.08
2022-12-09T19:40:11.758Z,20.63
2022-12-09T19:43:23.770Z,20.58
2022-12-09T19:46:38.619Z,22.13
2022-12-09T19:49:50.896Z,22.33
2022-12-09T19:53:04.054Z,24.65
2022-12-09T19:56:19.509Z,25.10
2022-12-09T19:59:32.200Z,24.13
2022-12-09T20:02:44.937Z,22.28
2022-12-09T20:06:00.073Z,23.73
2022-12-09T20:09:14.631Z,24.23
2022-12-09T20:12:26.635Z,24.03
2022-12-09T20:15:41.938Z,23.15
2022-12-09T20:18:54.861Z,18.95
2022-12-09T20:22:06.875Z,17.18
2022-12-09T20:25:19.217Z,17.85
2022-12-09T20:28:31.269Z,18.65
2022-12-09T20:31:46.113Z,18.90
2022-12-09T20:34:58.081Z,20.08
2022-12-09T20:38:11.159Z,19.55
2022-12-09T20:41:23.634Z,19.25
2022-12-09T20:44:36.480Z,19.28
2022-12-09T20:47:48.330Z,21.43
2022-12-09T20:51:00.538Z,23.95
2022-12-09T20:54:14.178Z,21.13
2022-12-09T20:57:26.301Z,19.95
2022-12-09T21:00:38.405Z,18.85
2022-12-09T21:03:51.683Z,18.75
2022-12-09T21:07:04.246Z,20.10
2022-12-09T21:10:19.264Z,23.45
2022-12-09T21:13:31.165Z,19.45
2022-12-09T21:16:47.011Z,21.13
2022-12-09T21:19:58.990Z,18.08
2022-12-09T21:23:33.340Z,19.90
2022-12-09T21:26:27.660Z,20.90
2022-12-09T21:29:40.322Z,21.95
2022-12-09T21:32:52.216Z,20.20
2022-12-09T21:36:04.172Z,22.05
2022-12-09T21:39:19.462Z,21.10
2022-12-09T21:42:31.388Z,22.70
2022-12-09T21:45:43.394Z,20.68
2022-12-09T21:49:03.308Z,25.10
2022-12-09T21:52:12.434Z,21.10
2022-12-09T21:55:24.650Z,19.55
2022-12-09T21:58:38.248Z,18.30
2022-12-09T22:01:50.631Z,18.78
2022-12-09T22:05:02.658Z,19.90
2022-12-09T22:08:14.732Z,18.33
2022-12-09T22:11:29.875Z,18.28
2022-12-09T22:14:41.975Z,18.70
2022-12-09T22:17:53.987Z,16.58
2022-12-09T22:21:27.252Z,15.00
2022-12-09T22:24:25.918Z,16.10
2022-12-09T22:27:37.938Z,18.03
2022-12-09T22:30:49.841Z,15.80
2022-12-09T22:34:06.704Z,16.08
2022-12-09T22:37:43.035Z,14.70
2022-12-09T22:40:36.221Z,13.38
2022-12-09T22:43:49.939Z,16.23
2022-12-09T22:47:02.088Z,16.18
2022-12-09T22:50:15.918Z,15.50
2022-12-09T22:53:27.858Z,15.95
2022-12-09T22:56:40.862Z,12.60
2022-12-09T22:59:52.681Z,16.28
2022-12-09T23:03:04.674Z,14.70
2022-12-09T23:06:17.811Z,17.73
2022-12-09T23:09:31.037Z,16.68
2022-12-09T23:12:43.035Z,16.15
2022-12-09T23:15:55.983Z,15.43
2022-12-09T23:19:08.611Z,15.53
2022-12-09T23:22:20.499Z,15.70
2022-12-09T23:25:32.430Z,15.03
2022-12-09T23:28:46.735Z,13.85
2022-12-09T23:31:58.540Z,13.38
2022-12-09T23:35:12.275Z,13.33
2022-12-09T23:38:24.231Z,14.10
2022-12-09T23:41:36.279Z,14.70
2022-12-09T23:44:49.164Z,14.73
2022-12-09T23:48:02.242Z,13.93
2022-12-09T23:51:20.998Z,12.60
2022-12-09T23:54:35.156Z,13.05
2022-12-09T23:57:48.953Z,14.85
